Omaha, Nebraska
Current Conditions -  °F | °C
As of 7:52 PM on Saturday 25 Oct 2014 (Local Time) from KOMA Reporting Station
Clear Clear  
Wind Chill: 65°   Ceiling: Unl
Heat Index: 65°   Visibility: 10mi
Dew Point: 40°   Wind: 9mph
Humidity: 40%   Direction: 80°E
Pressure: 30.04"   Gusts: NA
Location:  41.26°N, 95.94°W
Report Text: KOMA 260052Z 08008KT 10SM CLR 18/04 A3004 RMK AO2 SLP171 T01830044
Loading
Personal Weather Stations






























Interactive Weather Map New forecast layout! Learn more

10-Day Weather Forecast

Advertisements
Track Severe Weather on mobile